sensor_id;sensor_type;location;lat;lon;timestamp;pressure;altitude;pressure_sealevel;temperature;humidity
68654;BME280;55636;51.108;13.622;2023-08-08T00:00:37;100079.47;;;13.68;58.69
68654;BME280;55636;51.108;13.622;2023-08-08T00:01:39;100074.22;;;13.66;58.75
68654;BME280;55636;51.108;13.622;2023-08-08T00:02:45;100077.00;;;13.66;59.02
68654;BME280;55636;51.108;13.622;2023-08-08T00:03:47;100072.84;;;13.64;58.92
68654;BME280;55636;51.108;13.622;2023-08-08T00:04:50;100072.84;;;13.64;59.13
68654;BME280;55636;51.108;13.622;2023-08-08T00:05:53;100085.06;;;13.63;58.62
68654;BME280;55636;51.108;13.622;2023-08-08T00:06:56;100068.69;;;13.61;58.84
68654;BME280;55636;51.108;13.622;2023-08-08T00:08:00;100065.09;;;13.61;59.04
68654;BME280;55636;51.108;13.622;2023-08-08T00:09:03;100076.22;;;13.61;58.83
68654;BME280;55636;51.108;13.622;2023-08-08T00:10:06;100068.44;;;13.58;58.78
68654;BME280;55636;51.108;13.622;2023-08-08T00:11:09;100071.22;;;13.58;58.86
68654;BME280;55636;51.108;13.622;2023-08-08T00:12:11;100073.47;;;13.56;58.75
68654;BME280;55636;51.108;13.622;2023-08-08T00:13:14;100071.81;;;13.55;58.98
68654;BME280;55636;51.108;13.622;2023-08-08T00:14:16;100070.13;;;13.54;58.80
68654;BME280;55636;51.108;13.622;2023-08-08T00:15:19;100072.38;;;13.52;58.92
68654;BME280;55636;51.108;13.622;2023-08-08T00:16:22;100074.31;;;13.51;58.87
68654;BME280;55636;51.108;13.622;2023-08-08T00:17:24;100074.63;;;13.49;58.60
68654;BME280;55636;51.108;13.622;2023-08-08T00:18:27;100081.00;;;13.50;58.82
68654;BME280;55636;51.108;13.622;2023-08-08T00:19:30;100066.59;;;13.48;58.57
68654;BME280;55636;51.108;13.622;2023-08-08T00:20:33;100071.31;;;13.47;58.73
68654;BME280;55636;51.108;13.622;2023-08-08T00:21:35;100064.09;;;13.46;58.80
68654;BME280;55636;51.108;13.622;2023-08-08T00:22:38;100072.72;;;13.45;58.65
68654;BME280;55636;51.108;13.622;2023-08-08T00:23:40;100072.16;;;13.43;59.00
68654;BME280;55636;51.108;13.622;2023-08-08T00:24:43;100071.34;;;13.42;58.67
68654;BME280;55636;51.108;13.622;2023-08-08T00:25:45;100076.03;;;13.42;58.76
68654;BME280;55636;51.108;13.622;2023-08-08T00:26:52;100078.00;;;13.41;58.69
68654;BME280;55636;51.108;13.622;2023-08-08T00:27:54;100074.38;;;13.41;58.68
68654;BME280;55636;51.108;13.622;2023-08-08T00:28:57;100070.22;;;13.38;58.64
68654;BME280;55636;51.108;13.622;2023-08-08T00:30:00;100073.00;;;13.38;58.52
68654;BME280;55636;51.108;13.622;2023-08-08T00:31:03;100062.19;;;13.37;58.59
68654;BME280;55636;51.108;13.622;2023-08-08T00:32:09;100069.72;;;13.36;58.38
68654;BME280;55636;51.108;13.622;2023-08-08T00:33:11;100067.22;;;13.34;58.75
68654;BME280;55636;51.108;13.622;2023-08-08T00:34:14;100060.31;;;13.32;58.37
68654;BME280;55636;51.108;13.622;2023-08-08T00:35:16;100063.91;;;13.32;58.76
68654;BME280;55636;51.108;13.622;2023-08-08T00:36:20;100063.06;;;13.32;58.73
68654;BME280;55636;51.108;13.622;2023-08-08T00:37:22;100060.31;;;13.32;58.41
68654;BME280;55636;51.108;13.622;2023-08-08T00:38:26;100066.97;;;13.31;58.60
68654;BME280;55636;51.108;13.622;2023-08-08T00:39:28;100062.00;;;13.28;58.61
68654;BME280;55636;51.108;13.622;2023-08-08T00:40:31;100064.78;;;13.28;58.47
68654;BME280;55636;51.108;13.622;2023-08-08T00:41:33;100065.88;;;13.27;58.81
68654;BME280;55636;51.108;13.622;2023-08-08T00:42:37;100067.81;;;13.26;58.78
68654;BME280;55636;51.108;13.622;2023-08-08T00:43:39;100060.06;;;13.23;58.64
68654;BME280;55636;51.108;13.622;2023-08-08T00:44:42;100063.66;;;13.24;58.73
68654;BME280;55636;51.108;13.622;2023-08-08T00:45:44;100059.25;;;13.23;58.65
68654;BME280;55636;51.108;13.622;2023-08-08T00:46:49;100059.25;;;13.23;58.82
68654;BME280;55636;51.108;13.622;2023-08-08T00:47:52;100057.59;;;13.22;58.76
68654;BME280;55636;51.108;13.622;2023-08-08T00:48:55;100050.38;;;13.21;58.80
68654;BME280;55636;51.108;13.622;2023-08-08T00:49:58;100057.88;;;13.20;58.69
68654;BME280;55636;51.108;13.622;2023-08-08T00:51:01;100057.88;;;13.20;58.87
68654;BME280;55636;51.108;13.622;2023-08-08T00:52:03;100055.09;;;13.20;59.03
68654;BME280;55636;51.108;13.622;2023-08-08T00:53:07;100049.81;;;13.18;59.15
68654;BME280;55636;51.108;13.622;2023-08-08T00:54:11;100052.59;;;13.18;59.09
68654;BME280;55636;51.108;13.622;2023-08-08T00:55:13;100053.72;;;13.17;58.93
68654;BME280;55636;51.108;13.622;2023-08-08T00:56:17;100050.09;;;13.17;58.99
68654;BME280;55636;51.108;13.622;2023-08-08T00:57:20;100047.34;;;13.17;58.88
68654;BME280;55636;51.108;13.622;2023-08-08T00:58:22;100060.09;;;13.18;58.93
68654;BME280;55636;51.108;13.622;2023-08-08T00:59:26;100054.84;;;13.16;59.04
68654;BME280;55636;51.108;13.622;2023-08-08T01:00:29;100060.38;;;13.16;59.00
68654;BME280;55636;51.108;13.622;2023-08-08T01:01:31;100059.53;;;13.16;58.85
68654;BME280;55636;51.108;13.622;2023-08-08T01:02:34;100059.53;;;13.16;58.88
68654;BME280;55636;51.108;13.622;2023-08-08T01:03:36;100054.00;;;13.16;58.97
68654;BME280;55636;51.108;13.622;2023-08-08T01:04:39;100074.25;;;13.16;58.92
68654;BME280;55636;51.108;13.622;2023-08-08T01:05:47;100060.69;;;13.15;58.52
68654;BME280;55636;51.108;13.622;2023-08-08T01:08:07;100055.13;;;13.15;58.49
68654;BME280;55636;51.108;13.622;2023-08-08T01:09:21;100058.16;;;13.13;58.63
68654;BME280;55636;51.108;13.622;2023-08-08T01:10:30;100054.56;;;13.13;58.65
68654;BME280;55636;51.108;13.622;2023-08-08T01:11:36;100053.75;;;13.12;58.82
68654;BME280;55636;51.108;13.622;2023-08-08T01:12:42;100057.34;;;13.13;58.41
68654;BME280;55636;51.108;13.622;2023-08-08T01:13:46;100059.31;;;13.12;58.60
68654;BME280;55636;51.108;13.622;2023-08-08T01:14:50;100060.41;;;13.11;58.34
68654;BME280;55636;51.108;13.622;2023-08-08T01:15:53;100052.38;;;13.10;58.33
68654;BME280;55636;51.108;13.622;2023-08-08T01:16:57;100054.31;;;13.09;58.49
68654;BME280;55636;51.108;13.622;2023-08-08T01:18:03;100055.44;;;13.08;58.49
68654;BME280;55636;51.108;13.622;2023-08-08T01:19:07;100045.47;;;13.07;58.44
68654;BME280;55636;51.108;13.622;2023-08-08T01:20:11;100051.53;;;13.09;58.52
68654;BME280;55636;51.108;13.622;2023-08-08T01:21:17;100053.78;;;13.07;58.44
68654;BME280;55636;51.108;13.622;2023-08-08T01:22:25;100054.88;;;13.06;58.52
68654;BME280;55636;51.108;13.622;2023-08-08T01:23:53;100054.06;;;13.06;58.58
68654;BME280;55636;51.108;13.622;2023-08-08T01:24:59;100047.66;;;13.05;58.46
68654;BME280;55636;51.108;13.622;2023-08-08T01:26:03;100051.56;;;13.04;58.63
68654;BME280;55636;51.108;13.622;2023-08-08T01:27:06;100049.91;;;13.03;58.44
68654;BME280;55636;51.108;13.622;2023-08-08T01:28:10;100045.19;;;13.04;58.54
68654;BME280;55636;51.108;13.622;2023-08-08T01:29:12;100049.38;;;13.01;58.57
68654;BME280;55636;51.108;13.622;2023-08-08T01:30:15;100043.81;;;13.01;58.53
68654;BME280;55636;51.108;13.622;2023-08-08T01:31:17;100043.00;;;13.00;58.57
68654;BME280;55636;51.108;13.622;2023-08-08T01:32:20;100039.38;;;13.00;58.42
68654;BME280;55636;51.108;13.622;2023-08-08T01:33:24;100042.16;;;13.00;58.70
68654;BME280;55636;51.108;13.622;2023-08-08T01:34:26;100042.44;;;12.98;58.32
68654;BME280;55636;51.108;13.622;2023-08-08T01:35:31;100034.94;;;12.99;58.34
68654;BME280;55636;51.108;13.622;2023-08-08T01:36:55;100034.41;;;12.97;58.51
68654;BME280;55636;51.108;13.622;2023-08-08T01:38:30;100043.84;;;12.96;58.41
68654;BME280;55636;51.108;13.622;2023-08-08T01:39:34;100043.84;;;12.96;58.62
68654;BME280;55636;51.108;13.622;2023-08-08T01:40:38;100031.38;;;12.93;58.59
68654;BME280;55636;51.108;13.622;2023-08-08T01:41:42;100040.81;;;12.92;58.41
68654;BME280;55636;51.108;13.622;2023-08-08T01:42:48;100046.34;;;12.92;58.37
68654;BME280;55636;51.108;13.622;2023-08-08T01:43:52;100040.81;;;12.92;58.48
68654;BME280;55636;51.108;13.622;2023-08-08T01:44:55;100039.13;;;12.91;58.36
68654;BME280;55636;51.108;13.622;2023-08-08T01:46:01;100044.97;;;12.90;58.35
68654;BME280;55636;51.108;13.622;2023-08-08T01:47:05;100041.38;;;12.89;58.33
68654;BME280;55636;51.108;13.622;2023-08-08T01:48:08;100043.31;;;12.89;58.23
68654;BME280;55636;51.108;13.622;2023-08-08T01:49:11;100050.81;;;12.88;58.50
68654;BME280;55636;51.108;13.622;2023-08-08T01:50:13;100046.38;;;12.87;58.44
68654;BME280;55636;51.108;13.622;2023-08-08T01:51:16;100043.06;;;12.85;58.41
68654;BME280;55636;51.108;13.622;2023-08-08T01:52:18;100045.56;;;12.87;58.24
68654;BME280;55636;51.108;13.622;2023-08-08T01:53:21;100045.00;;;12.84;58.20
68654;BME280;55636;51.108;13.622;2023-08-08T01:54:24;100051.38;;;12.85;58.31
68654;BME280;55636;51.108;13.622;2023-08-08T01:55:27;100041.41;;;12.84;58.45
68654;BME280;55636;51.108;13.622;2023-08-08T01:56:30;100053.31;;;12.84;58.50
68654;BME280;55636;51.108;13.622;2023-08-08T01:57:36;100039.44;;;12.84;58.14
68654;BME280;55636;51.108;13.622;2023-08-08T01:58:39;100039.72;;;12.83;58.33
68654;BME280;55636;51.108;13.622;2023-08-08T01:59:41;100041.69;;;12.82;58.23
68654;BME280;55636;51.108;13.622;2023-08-08T02:00:46;100040.84;;;12.82;58.06
68654;BME280;55636;51.108;13.622;2023-08-08T02:01:51;100037.25;;;12.81;58.07
68654;BME280;55636;51.108;13.622;2023-08-08T02:02:53;100042.78;;;12.81;58.22
68654;BME280;55636;51.108;13.622;2023-08-08T02:03:56;100043.91;;;12.80;58.11
68654;BME280;55636;51.108;13.622;2023-08-08T02:04:58;100040.31;;;12.80;58.31
68654;BME280;55636;51.108;13.622;2023-08-08T02:06:02;100037.53;;;12.80;58.15
68654;BME280;55636;51.108;13.622;2023-08-08T02:07:05;100046.97;;;12.79;58.16
68654;BME280;55636;51.108;13.622;2023-08-08T02:08:07;100048.63;;;12.80;58.16
68654;BME280;55636;51.108;13.622;2023-08-08T02:09:10;100052.50;;;12.79;57.99
68654;BME280;55636;51.108;13.622;2023-08-08T02:10:14;100048.06;;;12.78;57.93
68654;BME280;55636;51.108;13.622;2023-08-08T02:11:16;100052.78;;;12.77;57.94
68654;BME280;55636;51.108;13.622;2023-08-08T02:12:19;100044.78;;;12.76;58.23
68654;BME280;55636;51.108;13.622;2023-08-08T02:13:22;100048.66;;;12.75;58.00
68654;BME280;55636;51.108;13.622;2023-08-08T02:14:25;100055.00;;;12.75;58.12
68654;BME280;55636;51.108;13.622;2023-08-08T02:15:28;100055.28;;;12.74;57.99
68654;BME280;55636;51.108;13.622;2023-08-08T02:16:32;100050.84;;;12.73;58.28
68654;BME280;55636;51.108;13.622;2023-08-08T02:17:37;100051.97;;;12.72;58.13
68654;BME280;55636;51.108;13.622;2023-08-08T02:18:40;100055.59;;;12.72;57.91
68654;BME280;55636;51.108;13.622;2023-08-08T02:19:43;100049.19;;;12.72;58.06
68654;BME280;55636;51.108;13.622;2023-08-08T02:20:45;100053.09;;;12.71;57.93
68654;BME280;55636;51.108;13.622;2023-08-08T02:21:49;100052.25;;;12.70;58.28
68654;BME280;55636;51.108;13.622;2023-08-08T02:22:54;100040.34;;;12.70;58.09
68654;BME280;55636;51.108;13.622;2023-08-08T02:23:57;100042.28;;;12.69;58.27
68654;BME280;55636;51.108;13.622;2023-08-08T02:25:01;100052.25;;;12.70;58.12
68654;BME280;55636;51.108;13.622;2023-08-08T02:26:03;100058.91;;;12.69;58.03
68654;BME280;55636;51.108;13.622;2023-08-08T02:27:06;100053.66;;;12.67;57.90
68654;BME280;55636;51.108;13.622;2023-08-08T02:28:08;100053.94;;;12.66;58.25
68654;BME280;55636;51.108;13.622;2023-08-08T02:29:10;100042.84;;;12.66;57.90
68654;BME280;55636;51.108;13.622;2023-08-08T02:30:13;100048.38;;;12.66;57.87
68654;BME280;55636;51.108;13.622;2023-08-08T02:31:16;100050.63;;;12.64;58.09
68654;BME280;55636;51.108;13.622;2023-08-08T02:32:24;100053.41;;;12.64;57.84
68654;BME280;55636;51.108;13.622;2023-08-08T02:33:28;100049.78;;;12.63;58.06
68654;BME280;55636;51.108;13.622;2023-08-08T02:34:31;100046.19;;;12.63;57.98
68654;BME280;55636;51.108;13.622;2023-08-08T02:35:33;100046.19;;;12.63;58.16
68654;BME280;55636;51.108;13.622;2023-08-08T02:36:35;100044.53;;;12.62;58.09
68654;BME280;55636;51.108;13.622;2023-08-08T02:37:38;100053.94;;;12.61;57.80
68654;BME280;55636;51.108;13.622;2023-08-08T02:38:42;100047.56;;;12.60;58.00
68654;BME280;55636;51.108;13.622;2023-08-08T02:39:45;100053.09;;;12.60;57.83
68654;BME280;55636;51.108;13.622;2023-08-08T02:40:50;100045.88;;;12.59;57.87
68654;BME280;55636;51.108;13.622;2023-08-08T02:41:52;100043.41;;;12.58;57.84
68654;BME280;55636;51.108;13.622;2023-08-08T02:42:55;100043.69;;;12.56;57.93
68654;BME280;55636;51.108;13.622;2023-08-08T02:43:57;100041.75;;;12.57;57.96
68654;BME280;55636;51.108;13.622;2023-08-08T02:45:00;100044.81;;;12.55;58.02
68654;BME280;55636;51.108;13.622;2023-08-08T02:46:03;100043.13;;;12.54;57.80
68654;BME280;55636;51.108;13.622;2023-08-08T02:47:06;100039.25;;;12.55;58.14
68654;BME280;55636;51.108;13.622;2023-08-08T02:48:09;100042.31;;;12.54;58.15
68654;BME280;55636;51.108;13.622;2023-08-08T02:49:12;100045.91;;;12.54;58.10
68654;BME280;55636;51.108;13.622;2023-08-08T02:50:14;100033.44;;;12.51;57.94
68654;BME280;55636;51.108;13.622;2023-08-08T02:51:19;100039.81;;;12.52;57.82
68654;BME280;55636;51.108;13.622;2023-08-08T02:52:22;100040.94;;;12.51;57.87
68654;BME280;55636;51.108;13.622;2023-08-08T02:53:24;100042.03;;;12.50;57.91
68654;BME280;55636;51.108;13.622;2023-08-08T02:54:27;100040.38;;;12.49;58.03
68654;BME280;55636;51.108;13.622;2023-08-08T02:55:29;100044.25;;;12.48;57.95
68654;BME280;55636;51.108;13.622;2023-08-08T02:56:32;100047.03;;;12.48;58.03
68654;BME280;55636;51.108;13.622;2023-08-08T02:57:35;100040.94;;;12.46;58.01
68654;BME280;55636;51.108;13.622;2023-08-08T02:58:39;100040.09;;;12.45;57.96
68654;BME280;55636;51.108;13.622;2023-08-08T02:59:43;100042.88;;;12.45;58.13
68654;BME280;55636;51.108;13.622;2023-08-08T03:00:45;100038.44;;;12.44;58.10
68654;BME280;55636;51.108;13.622;2023-08-08T03:01:49;100038.44;;;12.44;58.02
68654;BME280;55636;51.108;13.622;2023-08-08T03:02:52;100041.50;;;12.43;57.96
68654;BME280;55636;51.108;13.622;2023-08-08T03:03:55;100041.50;;;12.43;57.81
68654;BME280;55636;51.108;13.622;2023-08-08T03:05:00;100039.00;;;12.41;58.05
68654;BME280;55636;51.108;13.622;2023-08-08T03:06:03;100044.56;;;12.41;57.94
68654;BME280;55636;51.108;13.622;2023-08-08T03:07:07;100042.06;;;12.40;57.93
68654;BME280;55636;51.108;13.622;2023-08-08T03:08:11;100044.00;;;12.39;57.93
68654;BME280;55636;51.108;13.622;2023-08-08T03:09:16;100046.78;;;12.39;57.87
68654;BME280;55636;51.108;13.622;2023-08-08T03:10:19;100039.59;;;12.38;57.83
68654;BME280;55636;51.108;13.622;2023-08-08T03:11:22;100040.41;;;12.39;57.92
68654;BME280;55636;51.108;13.622;2023-08-08T03:12:24;100045.13;;;12.38;57.83
68654;BME280;55636;51.108;13.622;2023-08-08T03:13:28;100051.75;;;12.37;57.97
68654;BME280;55636;51.108;13.622;2023-08-08T03:14:31;100050.94;;;12.37;57.87
68654;BME280;55636;51.108;13.622;2023-08-08T03:15:36;100053.16;;;12.34;57.89
68654;BME280;55636;51.108;13.622;2023-08-08T03:16:40;100049.56;;;12.34;57.78
68654;BME280;55636;51.108;13.622;2023-08-08T03:17:45;100048.44;;;12.35;57.75
68654;BME280;55636;51.108;13.622;2023-08-08T03:18:47;100045.94;;;12.33;57.85
68654;BME280;55636;51.108;13.622;2023-08-08T03:19:50;100042.66;;;12.31;57.97
68654;BME280;55636;51.108;13.622;2023-08-08T03:20:52;100047.91;;;12.33;57.99
68654;BME280;55636;51.108;13.622;2023-08-08T03:21:56;100045.41;;;12.31;57.79
68654;BME280;55636;51.108;13.622;2023-08-08T03:23:00;100050.09;;;12.31;57.89
68654;BME280;55636;51.108;13.622;2023-08-08T03:24:04;100049.28;;;12.30;58.01
68654;BME280;55636;51.108;13.622;2023-08-08T03:25:06;100035.72;;;12.29;58.04
68654;BME280;55636;51.108;13.622;2023-08-08T03:26:09;100041.28;;;12.29;58.05
68654;BME280;55636;51.108;13.622;2023-08-08T03:27:11;100045.44;;;12.26;57.99
68654;BME280;55636;51.108;13.622;2023-08-08T03:28:16;100042.66;;;12.26;57.93
68654;BME280;55636;51.108;13.622;2023-08-08T03:29:18;100044.56;;;12.26;58.05
68654;BME280;55636;51.108;13.622;2023-08-08T03:30:23;100044.56;;;12.26;57.94
68654;BME280;55636;51.108;13.622;2023-08-08T03:31:27;100037.66;;;12.23;58.17
68654;BME280;55636;51.108;13.622;2023-08-08T03:32:31;100039.59;;;12.23;58.01
68654;BME280;55636;51.108;13.622;2023-08-08T03:33:34;100036.84;;;12.23;58.13
68654;BME280;55636;51.108;13.622;2023-08-08T03:34:38;100036.00;;;12.22;58.14
68654;BME280;55636;51.108;13.622;2023-08-08T03:35:41;100040.72;;;12.22;58.06
68654;BME280;55636;51.108;13.622;2023-08-08T03:36:46;100041.00;;;12.20;58.21
68654;BME280;55636;51.108;13.622;2023-08-08T03:37:48;100042.09;;;12.19;58.31
68654;BME280;55636;51.108;13.622;2023-08-08T03:38:51;100035.75;;;12.18;58.20
68654;BME280;55636;51.108;13.622;2023-08-08T03:39:54;100032.13;;;12.18;58.12
68654;BME280;55636;51.108;13.622;2023-08-08T03:40:57;100040.44;;;12.18;58.09
68654;BME280;55636;51.108;13.622;2023-08-08T03:42:01;100039.31;;;12.19;58.23
68654;BME280;55636;51.108;13.622;2023-08-08T03:43:04;100032.13;;;12.18;58.22
68654;BME280;55636;51.108;13.622;2023-08-08T03:44:06;100040.72;;;12.16;58.24
68654;BME280;55636;51.108;13.622;2023-08-08T03:45:09;100031.59;;;12.16;58.25
68654;BME280;55636;51.108;13.622;2023-08-08T03:46:12;100043.47;;;12.16;58.15
68654;BME280;55636;51.108;13.622;2023-08-08T03:47:16;100039.06;;;12.15;58.25
68654;BME280;55636;51.108;13.622;2023-08-08T03:48:21;100036.56;;;12.14;58.32
68654;BME280;55636;51.108;13.622;2023-08-08T03:49:25;100045.72;;;12.14;58.46
68654;BME280;55636;51.108;13.622;2023-08-08T03:50:27;100037.41;;;12.14;58.38
68654;BME280;55636;51.108;13.622;2023-08-08T03:51:31;100036.56;;;12.14;58.40
68654;BME280;55636;51.108;13.622;2023-08-08T03:52:33;100045.97;;;12.13;58.40
68654;BME280;55636;51.108;13.622;2023-08-08T03:53:38;100044.88;;;12.14;58.21
68654;BME280;55636;51.108;13.622;2023-08-08T03:54:40;100038.53;;;12.13;58.24
68654;BME280;55636;51.108;13.622;2023-08-08T03:55:43;100045.97;;;12.13;58.32
68654;BME280;55636;51.108;13.622;2023-08-08T03:56:45;100039.63;;;12.12;58.25
68654;BME280;55636;51.108;13.622;2023-08-08T03:57:48;100038.53;;;12.13;58.48
68654;BME280;55636;51.108;13.622;2023-08-08T03:58:51;100043.22;;;12.13;58.32
68654;BME280;55636;51.108;13.622;2023-08-08T03:59:54;100029.66;;;12.11;58.55
68654;BME280;55636;51.108;13.622;2023-08-08T04:00:57;100040.44;;;12.13;58.54
68654;BME280;55636;51.108;13.622;2023-08-08T04:01:59;100036.56;;;12.14;58.29
68654;BME280;55636;51.108;13.622;2023-08-08T04:03:02;100039.63;;;12.12;58.59
68654;BME280;55636;51.108;13.622;2023-08-08T04:04:05;100036.84;;;12.12;58.60
68654;BME280;55636;51.108;13.622;2023-08-08T04:05:08;100039.34;;;12.14;58.51
68654;BME280;55636;51.108;13.622;2023-08-08T04:06:11;100026.59;;;12.13;58.54
68654;BME280;55636;51.108;13.622;2023-08-08T04:07:13;100031.88;;;12.14;58.61
68654;BME280;55636;51.108;13.622;2023-08-08T04:08:16;100031.88;;;12.14;58.49
68654;BME280;55636;51.108;13.622;2023-08-08T04:09:22;100030.75;;;12.15;58.69
68654;BME280;55636;51.108;13.622;2023-08-08T04:10:24;100023.56;;;12.14;58.81
68654;BME280;55636;51.108;13.622;2023-08-08T04:11:27;100029.94;;;12.15;58.57
68654;BME280;55636;51.108;13.622;2023-08-08T04:12:30;100022.19;;;12.17;58.45
68654;BME280;55636;51.108;13.622;2023-08-08T04:13:35;100025.22;;;12.15;58.56
68654;BME280;55636;51.108;13.622;2023-08-08T04:14:37;100019.41;;;12.17;58.84
68654;BME280;55636;51.108;13.622;2023-08-08T04:15:39;100020.22;;;12.17;58.75
68654;BME280;55636;51.108;13.622;2023-08-08T04:16:43;100015.50;;;12.18;58.62
68654;BME280;55636;51.108;13.622;2023-08-08T04:17:46;100019.94;;;12.19;58.77
68654;BME280;55636;51.108;13.622;2023-08-08T04:18:48;100020.50;;;12.21;58.60
68654;BME280;55636;51.108;13.622;2023-08-08T04:19:51;100015.78;;;12.22;58.53
68654;BME280;55636;51.108;13.622;2023-08-08T04:20:53;100024.09;;;12.22;58.79
68654;BME280;55636;51.108;13.622;2023-08-08T04:21:55;100021.03;;;12.23;58.67
68654;BME280;55636;51.108;13.622;2023-08-08T04:22:59;100021.88;;;12.24;58.80
68654;BME280;55636;51.108;13.622;2023-08-08T04:24:02;100016.06;;;12.25;58.60
68654;BME280;55636;51.108;13.622;2023-08-08T04:25:05;100022.41;;;12.26;58.81
68654;BME280;55636;51.108;13.622;2023-08-08T04:26:09;100018.56;;;12.27;58.84
68654;BME280;55636;51.108;13.622;2023-08-08T04:27:11;100012.72;;;12.28;58.61
68654;BME280;55636;51.108;13.622;2023-08-08T04:28:15;100019.66;;;12.31;58.54
68654;BME280;55636;51.108;13.622;2023-08-08T04:29:17;100019.34;;;12.32;58.50
68654;BME280;55636;51.108;13.622;2023-08-08T04:30:20;100019.34;;;12.32;58.78
68654;BME280;55636;51.108;13.622;2023-08-08T04:31:22;100016.03;;;12.35;58.75
68654;BME280;55636;51.108;13.622;2023-08-08T04:32:28;100015.75;;;12.37;58.76
68654;BME280;55636;51.108;13.622;2023-08-08T04:33:30;100021.84;;;12.39;58.63
68654;BME280;55636;51.108;13.622;2023-08-08T04:34:33;100025.97;;;12.42;58.62
68654;BME280;55636;51.108;13.622;2023-08-08T04:35:35;100033.75;;;12.45;58.73
68654;BME280;55636;51.108;13.622;2023-08-08T04:36:38;100035.13;;;12.47;58.72
68654;BME280;55636;51.108;13.622;2023-08-08T04:37:40;100030.97;;;12.50;58.61
68654;BME280;55636;51.108;13.622;2023-08-08T04:38:44;100031.22;;;12.54;58.69
68654;BME280;55636;51.108;13.622;2023-08-08T04:39:46;100032.63;;;12.56;58.78
68654;BME280;55636;51.108;13.622;2023-08-08T04:40:49;100038.16;;;12.61;58.88
68654;BME280;55636;51.108;13.622;2023-08-08T04:41:52;100043.94;;;12.65;58.48
68654;BME280;55636;51.108;13.622;2023-08-08T04:42:55;100029.00;;;12.66;58.52
68654;BME280;55636;51.108;13.622;2023-08-08T04:43:57;100028.97;;;12.71;58.32
68654;BME280;55636;51.108;13.622;2023-08-08T04:45:00;100029.53;;;12.73;58.47
68654;BME280;55636;51.108;13.622;2023-08-08T04:46:02;100033.41;;;12.77;58.21
68654;BME280;55636;51.108;13.622;2023-08-08T04:47:05;100028.38;;;12.79;58.19
68654;BME280;55636;51.108;13.622;2023-08-08T04:48:07;100022.81;;;12.84;58.14
68654;BME280;55636;51.108;13.622;2023-08-08T04:49:09;100038.91;;;12.88;58.24
68654;BME280;55636;51.108;13.622;2023-08-08T04:50:12;100042.75;;;12.92;58.44
68654;BME280;55636;51.108;13.622;2023-08-08T04:51:15;100033.84;;;12.95;58.41
68654;BME280;55636;51.108;13.622;2023-08-08T04:52:18;100028.28;;;13.00;58.25
68654;BME280;55636;51.108;13.622;2023-08-08T04:53:20;100043.25;;;13.04;58.54
68654;BME280;55636;51.108;13.622;2023-08-08T04:54:23;100031.31;;;13.09;58.21
68654;BME280;55636;51.108;13.622;2023-08-08T04:55:25;100046.81;;;13.15;58.33
68654;BME280;55636;51.108;13.622;2023-08-08T04:56:30;100035.13;;;13.18;58.00
68654;BME280;55636;51.108;13.622;2023-08-08T04:57:33;100033.16;;;13.24;58.09
68654;BME280;55636;51.108;13.622;2023-08-08T04:58:35;100043.09;;;13.30;58.11
68654;BME280;55636;51.108;13.622;2023-08-08T04:59:38;100040.31;;;13.35;57.95
68654;BME280;55636;51.108;13.622;2023-08-08T05:00:40;100036.38;;;13.41;57.69
68654;BME280;55636;51.108;13.622;2023-08-08T05:01:43;100047.44;;;13.46;57.55
68654;BME280;55636;51.108;13.622;2023-08-08T05:02:45;100034.66;;;13.50;57.37
68654;BME280;55636;51.108;13.622;2023-08-08T05:03:48;100032.94;;;13.55;57.22
68654;BME280;55636;51.108;13.622;2023-08-08T05:04:50;100043.44;;;13.63;57.17
68654;BME280;55636;51.108;13.622;2023-08-08T05:05:53;100045.34;;;13.67;57.16
68654;BME280;55636;51.108;13.622;2023-08-08T05:06:55;100042.88;;;13.71;56.77
68654;BME280;55636;51.108;13.622;2023-08-08T05:07:59;100051.69;;;13.78;57.02
68654;BME280;55636;51.108;13.622;2023-08-08T05:09:02;100041.38;;;13.84;57.04
68654;BME280;55636;51.108;13.622;2023-08-08T05:10:06;100036.59;;;13.90;56.77
68654;BME280;55636;51.108;13.622;2023-08-08T05:11:08;100041.00;;;13.96;56.74
68654;BME280;55636;51.108;13.622;2023-08-08T05:12:11;100039.00;;;14.02;56.64
68654;BME280;55636;51.108;13.622;2023-08-08T05:13:13;100035.88;;;14.08;56.53
68654;BME280;55636;51.108;13.622;2023-08-08T05:14:15;100035.00;;;14.13;56.35
68654;BME280;55636;51.108;13.622;2023-08-08T05:15:18;100032.44;;;14.22;56.46
68654;BME280;55636;51.108;13.622;2023-08-08T05:16:20;100043.19;;;14.28;56.35
68654;BME280;55636;51.108;13.622;2023-08-08T05:17:23;100037.28;;;14.35;56.22
68654;BME280;55636;51.108;13.622;2023-08-08T05:18:25;100037.47;;;14.44;56.12
68654;BME280;55636;51.108;13.622;2023-08-08T05:19:27;100036.81;;;14.52;56.33
68654;BME280;55636;51.108;13.622;2023-08-08T05:20:30;100036.72;;;14.62;56.41
68654;BME280;55636;51.108;13.622;2023-08-08T05:21:34;100038.31;;;14.69;55.88
68654;BME280;55636;51.108;13.622;2023-08-08T05:22:36;100030.16;;;14.77;55.82
68654;BME280;55636;51.108;13.622;2023-08-08T05:23:39;100031.16;;;14.87;55.68
68654;BME280;55636;51.108;13.622;2023-08-08T05:24:41;100024.66;;;14.96;55.51
68654;BME280;55636;51.108;13.622;2023-08-08T05:25:44;100030.38;;;15.05;54.96
68654;BME280;55636;51.108;13.622;2023-08-08T05:26:47;100036.09;;;15.14;54.71
68654;BME280;55636;51.108;13.622;2023-08-08T05:27:49;100027.09;;;15.22;54.78
68654;BME280;55636;51.108;13.622;2023-08-08T05:28:52;100027.75;;;15.33;54.63